Time;durP1;ratioP1;P1;durP2;ratioP2;P2;SDS_P1;SDS_P2;PMS_P1;PMS_P2;Temp;Humidity;BMP_temperature;BMP_pressure;BME280_temperature;BME280_humidity;BME280_pressure;Samples;Min_cycle;Max_cycle;Signal;HPM_P1;HPM_P2
2022/11/20 00:00:50;;;;;;;19.67;2.88;;;;;;;19.50;98.58;101641.69;2094857;28;20054;-74
2022/11/20 00:02:12;;;;;;;14.45;2.45;;;;;;;19.50;98.55;101641.69;2094188;28;20049;-73
2022/11/20 00:03:34;;;;;;;14.45;2.78;;;;;;;19.53;99.27;101640.78;2094105;28;20118;-73
2022/11/20 00:04:56;;;;;;;12.60;3.03;;;;;;;19.55;100.00;101652.41;2086057;28;20484;-73
2022/11/20 00:06:19;;;;;;;16.27;1.92;;;;;;;19.54;100.00;101643.47;2091976;28;20040;-73
2022/11/20 00:07:42;;;;;;;11.77;1.85;;;;;;;19.55;100.00;101649.72;2094322;28;20048;-73
2022/11/20 00:09:05;;;;;;;9.10;1.92;;;;;;;19.55;99.89;101639.00;2104801;28;20399;-73
2022/11/20 00:10:26;;;;;;;15.30;2.92;;;;;;;19.57;99.04;101643.44;2111214;28;20102;-73
2022/11/20 00:11:48;;;;;;;15.23;2.80;;;;;;;19.59;98.09;101630.03;2102470;28;20388;-73
2022/11/20 00:13:11;;;;;;;14.95;2.30;;;;;;;19.62;98.22;101628.22;2108543;28;20039;-73
2022/11/20 00:14:34;;;;;;;12.07;2.22;;;;;;;19.62;98.24;101621.97;2109114;28;20040;-73
2022/11/20 00:15:58;;;;;;;19.17;2.50;;;;;;;19.62;98.22;101619.31;2110774;28;20590;-73
2022/11/20 00:17:20;;;;;;;15.88;2.45;;;;;;;19.61;98.43;101633.59;2113865;28;20495;-72
2022/11/20 00:18:42;;;;;;;15.73;3.08;;;;;;;19.57;100.00;101626.47;2110892;28;20125;-73
2022/11/20 00:20:05;;;;;;;11.63;2.60;;;;;;;19.55;100.00;101628.28;2102037;28;20063;-71
2022/11/20 00:21:28;;;;;;;11.57;2.13;;;;;;;19.52;100.00;101622.94;2089597;28;20111;-71
2022/11/20 00:22:51;;;;;;;11.18;1.83;;;;;;;19.47;100.00;101631.00;2099608;28;20127;-74
2022/11/20 00:24:13;;;;;;;17.13;2.55;;;;;;;19.44;100.00;101637.22;2093781;28;20089;-73
2022/11/20 00:25:35;;;;;;;22.38;4.25;;;;;;;19.41;100.00;101636.38;2091317;28;20082;-73
2022/11/20 00:26:57;;;;;;;15.35;2.38;;;;;;;19.37;100.00;101646.19;2108196;28;20146;-73
2022/11/20 00:28:20;;;;;;;14.93;2.42;;;;;;;19.36;100.00;101635.53;2096781;28;20040;-73
2022/11/20 00:29:42;;;;;;;13.88;2.33;;;;;;;19.34;100.00;101645.34;2099652;28;20044;-73
2022/11/20 00:31:07;;;;;;;16.38;3.17;;;;;;;19.34;100.00;101632.84;2102326;28;20109;-73
2022/11/20 00:32:30;;;;;;;11.77;1.98;;;;;;;19.35;100.00;101647.13;2101802;28;20060;-72
2022/11/20 00:33:52;;;;;;;16.73;3.47;;;;;;;19.33;99.98;101640.88;2103700;28;20055;-73
2022/11/20 00:35:15;;;;;;;12.73;3.45;;;;;;;19.34;97.08;101643.56;2098068;28;20047;-74
2022/11/20 00:36:37;;;;;;;18.80;2.65;;;;;;;19.37;94.71;101639.97;2091801;28;20048;-74
2022/11/20 00:37:58;;;;;;;22.27;2.42;;;;;;;19.37;92.82;101640.84;2099653;28;20052;-73
2022/11/20 00:39:21;;;;;;;18.45;2.72;;;;;;;19.38;91.59;101639.97;2101912;28;20059;-73
2022/11/20 00:40:42;;;;;;;26.10;3.30;;;;;;;19.40;90.56;101648.00;2094099;28;20102;-73
2022/11/20 00:42:05;;;;;;;21.27;3.55;;;;;;;19.42;90.20;101659.59;2098569;28;20047;-73
2022/11/20 00:43:27;;;;;;;18.33;2.35;;;;;;;19.42;89.56;101644.41;2111735;28;20047;-73
2022/11/20 00:44:50;;;;;;;13.75;2.25;;;;;;;19.42;88.40;101647.09;2104879;28;20097;-73
2022/11/20 00:46:14;;;;;;;18.70;3.40;;;;;;;19.45;87.69;101648.84;2102252;28;20131;-72
2022/11/20 00:47:36;;;;;;;19.65;3.63;;;;;;;19.46;86.75;101646.19;2103699;28;20032;-73
2022/11/20 00:48:59;;;;;;;7.82;2.00;;;;;;;19.47;85.89;101641.72;2088332;28;20382;-73
2022/11/20 00:50:20;;;;;;;18.08;2.75;;;;;;;19.49;84.72;101648.84;2092067;28;20308;-73
2022/11/20 00:51:42;;;;;;;15.85;3.15;;;;;;;19.51;84.70;101659.53;2093867;28;20048;-73
2022/11/20 00:53:04;;;;;;;10.27;2.83;;;;;;;19.50;84.87;101647.94;2100574;28;20457;-73
2022/11/20 00:54:26;;;;;;;18.10;2.83;;;;;;;19.48;85.23;101643.50;2102348;28;20135;-72
2022/11/20 00:55:54;;;;;;;15.10;3.35;;;;;;;19.48;85.12;101657.78;2093810;28;20036;-73
2022/11/20 00:57:17;;;;;;;8.07;2.05;;;;;;;19.47;85.54;101666.72;2100990;28;20059;-73
2022/11/20 00:58:44;;;;;;;11.45;2.17;;;;;;;19.47;86.24;101669.41;2096838;28;20791;-72
2022/11/20 01:00:08;;;;;;;19.38;3.22;;;;;;;19.46;87.32;101664.06;2094303;28;20052;-74
2022/11/20 01:01:29;;;;;;;12.38;2.25;;;;;;;19.43;88.24;101667.59;2104910;28;20074;-76
2022/11/20 01:02:51;;;;;;;;;;;;;;;19.37;88.93;101670.31;2099872;28;20119;-74
2022/11/20 01:04:14;;;;;;;17.83;3.05;;;;;;;19.37;89.88;101672.09;2092181;28;20342;-73
2022/11/20 01:05:35;;;;;;;18.48;3.35;;;;;;;19.34;90.52;101665.00;2092939;28;20044;-73
2022/11/20 01:06:58;;;;;;;24.23;3.65;;;;;;;19.32;91.29;101674.81;2095427;28;20123;-73
2022/11/20 01:08:19;;;;;;;15.85;2.53;;;;;;;19.29;92.01;101676.63;2100279;28;20587;-74
2022/11/20 01:09:41;;;;;;;11.23;1.85;;;;;;;19.25;92.74;101685.56;2094046;28;20040;-73
2022/11/20 01:11:05;;;;;;;18.02;2.17;;;;;;;19.22;92.77;101682.91;2091232;28;20144;-74
2022/11/20 01:12:28;;;;;;;15.27;2.30;;;;;;;19.19;92.46;101685.59;2085361;28;20049;-73
2022/11/20 01:13:52;;;;;;;21.33;2.97;;;;;;;19.17;91.79;101696.28;2107889;28;20083;-73
2022/11/20 01:15:15;;;;;;;14.52;2.55;;;;;;;19.17;90.36;101692.72;2085917;28;20135;-73
2022/11/20 01:16:39;;;;;;;22.33;2.75;;;;;;;19.17;89.02;101692.72;2093777;28;20052;-73
2022/11/20 01:18:00;;;;;;;18.05;2.72;;;;;;;19.17;87.08;101693.63;2094146;28;20102;-73
2022/11/20 01:19:24;;;;;;;13.95;2.50;;;;;;;19.17;85.83;101677.56;2093464;28;20074;-73
2022/11/20 01:20:45;;;;;;;17.55;3.05;;;;;;;19.19;84.70;101678.44;2094044;28;20117;-73
2022/11/20 01:22:08;;;;;;;18.55;2.55;;;;;;;19.20;84.13;101679.34;2085512;28;20075;-73
2022/11/20 01:23:32;;;;;;;16.25;2.90;;;;;;;19.20;83.58;101682.91;2102246;28;20088;-73
2022/11/20 01:24:54;;;;;;;17.40;3.67;;;;;;;19.22;83.46;101682.91;2098138;28;20489;-73
2022/11/20 01:26:19;;;;;;;13.32;2.22;;;;;;;19.21;83.29;101675.78;2094923;28;20037;-73
2022/11/20 01:27:42;;;;;;;18.42;2.83;;;;;;;19.19;83.21;101674.88;2094118;28;20068;-73
2022/11/20 01:29:07;;;;;;;15.27;2.67;;;;;;;19.20;83.33;101669.53;2099330;28;20086;-73
2022/11/20 01:30:28;;;;;;;20.75;3.92;;;;;;;19.19;83.85;101674.88;2094176;28;20728;-73
2022/11/20 01:31:52;;;;;;;15.48;2.25;;;;;;;19.16;84.02;101669.56;2099330;28;20447;-73
2022/11/20 01:33:13;;;;;;;15.20;2.45;;;;;;;19.14;84.90;101666.00;2101877;28;20051;-74
2022/11/20 01:34:36;;;;;;;18.23;3.47;;;;;;;19.11;85.20;101669.56;2101959;28;20066;-73
2022/11/20 01:36:04;;;;;;;18.98;3.00;;;;;;;19.10;85.27;101668.66;2107831;28;20526;-73
2022/11/20 01:37:26;;;;;;;23.20;3.60;;;;;;;19.08;85.82;101665.13;2111227;28;20043;-73
2022/11/20 01:38:50;;;;;;;17.30;2.67;;;;;;;19.07;86.02;101666.03;2109800;28;20148;-73
2022/11/20 01:40:13;;;;;;;19.25;2.75;;;;;;;19.08;86.03;101673.16;2093777;28;20071;-73
2022/11/20 01:43:22;;;;;;;23.50;2.90;;;;;;;19.08;86.26;101666.91;2063353;28;20118;-73
2022/11/20 01:44:52;;;;;;;20.35;2.78;;;;;;;19.07;86.11;101665.13;2108448;28;20493;-73
2022/11/20 01:46:16;;;;;;;14.73;2.15;;;;;;;19.09;85.93;101660.66;2102036;28;20104;-73
2022/11/20 01:47:40;;;;;;;11.13;2.15;;;;;;;19.13;85.45;101666.88;2108059;28;20537;-73
2022/11/20 01:49:07;;;;;;;14.60;2.58;;;;;;;19.15;85.27;101667.78;2110899;28;20440;-73
2022/11/20 01:50:29;;;;;;;17.38;3.28;;;;;;;19.15;85.06;101666.00;2105491;28;20047;-73
2022/11/20 01:51:57;;;;;;;21.33;3.35;;;;;;;19.13;85.22;101667.78;2110399;28;20035;-73
2022/11/20 01:53:22;;;;;;;24.92;2.78;;;;;;;19.13;85.15;101670.44;2104933;28;20396;-73
2022/11/20 01:54:50;;;;;;;14.48;2.30;;;;;;;19.11;85.53;101670.44;2110963;28;20040;-73
2022/11/20 01:56:14;;;;;;;27.35;3.28;;;;;;;19.13;85.50;101673.13;2104556;28;20055;-73
2022/11/20 01:57:38;;;;;;;17.27;3.08;;;;;;;19.12;85.97;101676.69;2094121;28;20043;-73
2022/11/20 01:59:03;;;;;;;14.27;2.05;;;;;;;19.13;86.33;101672.22;2099931;28;20157;-73
2022/11/20 02:00:28;;;;;;;19.58;2.50;;;;;;;19.11;86.59;101675.81;2093891;28;20079;-74
2022/11/20 02:01:50;;;;;;;16.85;2.97;;;;;;;19.11;86.58;101675.81;2098473;28;20048;-73
2022/11/20 02:03:15;;;;;;;13.50;3.20;;;;;;;19.13;86.61;101672.22;2105300;28;20105;-71
2022/11/20 02:04:38;;;;;;;25.45;3.17;;;;;;;19.14;86.66;101674.91;2096210;28;20139;-71
2022/11/20 02:06:09;;;;;;;20.25;3.05;;;;;;;19.14;87.01;101679.38;2093779;28;20090;-71
2022/11/20 02:07:32;;;;;;;12.82;3.08;;;;;;;19.12;87.22;101676.69;2095084;28;20570;-73
2022/11/20 02:08:55;;;;;;;16.15;2.42;;;;;;;19.13;87.14;101670.44;2101623;28;20465;-73
2022/11/20 02:10:17;;;;;;;25.17;2.80;;;;;;;19.14;87.35;101663.31;2096309;28;20049;-73
2022/11/20 02:11:39;;;;;;;19.15;2.95;;;;;;;19.15;87.52;101659.75;2101990;28;20048;-73
2022/11/20 02:14:49;;;;;;;15.98;2.55;;;;;;;19.19;87.68;101665.06;2065159;28;20050;-73
2022/11/20 02:16:26;;;;;;;23.15;3.00;;;;;;;19.20;87.68;101657.94;2099157;28;20147;-73
2022/11/20 02:17:48;;;;;;;10.20;2.20;;;;;;;19.20;88.29;101660.59;2090217;28;20106;-73
2022/11/20 02:19:18;;;;;;;20.77;2.63;;;;;;;19.22;88.70;101664.16;2090850;28;20656;-73
2022/11/20 02:20:42;;;;;;;21.73;3.40;;;;;;;19.21;89.05;101665.06;2101482;28;20113;-73
2022/11/20 02:22:13;;;;;;;19.88;3.50;;;;;;;19.20;89.21;101658.81;2093583;28;20051;-73
2022/11/20 02:23:39;;;;;;;21.17;4.55;;;;;;;19.20;89.77;101657.94;2093210;28;20036;-73
2022/11/20 02:25:05;;;;;;;20.52;2.88;;;;;;;19.21;90.32;101657.94;2099633;28;20074;-73
2022/11/20 02:26:28;;;;;;;18.50;3.20;;;;;;;19.18;91.29;101649.00;2100492;28;20109;-73
2022/11/20 02:27:51;;;;;;;25.92;2.92;;;;;;;19.17;92.23;101647.22;2102002;28;20146;-73
2022/11/20 02:29:17;;;;;;;17.25;4.18;;;;;;;19.18;93.00;101649.00;2087750;28;20037;-73
2022/11/20 02:30:38;;;;;;;31.35;4.28;;;;;;;19.18;93.56;101632.94;2107969;28;20104;-73
2022/11/20 02:32:02;;;;;;;28.05;3.25;;;;;;;19.19;94.59;101637.41;2100399;28;20044;-73
2022/11/20 02:33:23;;;;;;;19.20;3.85;;;;;;;19.18;95.12;101631.16;2093942;28;20045;-73
2022/11/20 02:34:46;;;;;;;20.13;3.13;;;;;;;19.18;96.21;101633.81;2093352;28;20036;-73
2022/11/20 02:36:11;;;;;;;17.08;3.10;;;;;;;19.19;97.28;101634.72;2097804;28;20560;-74
2022/11/20 02:37:37;;;;;;;28.60;4.05;;;;;;;19.20;98.38;101626.69;2096298;28;20049;-74
2022/11/20 02:38:59;;;;;;;26.38;3.78;;;;;;;19.20;99.38;101623.13;2095979;28;20508;-73
2022/11/20 02:40:23;;;;;;;20.58;3.33;;;;;;;19.20;100.00;101626.69;2090435;28;20044;-73
2022/11/20 02:41:46;;;;;;;25.55;4.03;;;;;;;19.22;100.00;101615.97;2094026;28;20059;-73
2022/11/20 02:43:07;;;;;;;21.90;3.05;;;;;;;19.22;100.00;101619.56;2100676;28;20092;-73
2022/11/20 02:44:30;;;;;;;17.65;2.85;;;;;;;19.23;100.00;101615.09;2101648;28;20055;-73
2022/11/20 02:45:51;;;;;;;17.52;2.63;;;;;;;19.24;100.00;101611.47;2092135;28;20445;-73
2022/11/20 02:47:14;;;;;;;21.17;3.80;;;;;;;19.25;100.00;101605.22;2100813;28;20108;-73
2022/11/20 02:48:35;;;;;;;12.30;2.78;;;;;;;19.27;100.00;101612.38;2094186;28;20489;-72
2022/11/20 02:49:57;;;;;;;16.67;2.97;;;;;;;19.28;100.00;101618.63;2103655;28;20041;-73
2022/11/20 02:51:18;;;;;;;21.27;3.13;;;;;;;19.30;100.00;101616.78;2106231;28;20044;-73
2022/11/20 02:52:41;;;;;;;18.02;3.28;;;;;;;19.30;100.00;101616.78;2102800;28;20066;-72
2022/11/20 02:54:04;;;;;;;26.48;3.97;;;;;;;19.30;100.00;101622.16;2105821;28;20396;-73
2022/11/20 02:55:26;;;;;;;26.20;3.25;;;;;;;19.27;100.00;101615.03;2102896;28;20514;-72
2022/11/20 02:56:49;;;;;;;16.00;2.50;;;;;;;19.24;100.00;101611.47;2102557;28;20500;-72
2022/11/20 02:58:10;;;;;;;17.23;2.88;;;;;;;19.18;100.00;101617.75;2103362;28;20048;-72
2022/11/20 02:59:32;;;;;;;22.75;3.20;;;;;;;19.14;100.00;101616.03;2093631;28;20044;-72
2022/11/20 03:00:54;;;;;;;14.18;2.85;;;;;;;19.09;100.00;101620.53;2092121;28;20408;-72
2022/11/20 03:02:16;;;;;;;19.73;2.88;;;;;;;19.07;100.00;101628.56;2100309;28;20040;-73
2022/11/20 03:03:37;;;;;;;17.40;2.78;;;;;;;19.07;100.00;101631.22;2102870;28;20071;-72
2022/11/20 03:05:00;;;;;;;18.52;4.05;;;;;;;19.07;100.00;101625.88;2099870;28;20047;-72
2022/11/20 03:06:24;;;;;;;23.08;4.13;;;;;;;19.08;100.00;101618.72;2103584;28;20546;-73
2022/11/20 03:07:46;;;;;;;22.17;4.88;;;;;;;19.05;100.00;101624.09;2103139;28;20059;-73
2022/11/20 03:09:09;;;;;;;20.58;4.05;;;;;;;19.02;100.00;101632.16;2109596;28;20577;-73
2022/11/20 03:10:31;;;;;;;24.63;4.35;;;;;;;19.00;100.00;101628.59;2106067;28;20191;-73
2022/11/20 03:11:54;;;;;;;20.58;3.72;;;;;;;18.99;100.00;101626.81;2094895;28;20420;-73
2022/11/20 03:13:16;;;;;;;22.88;4.25;;;;;;;18.98;100.00;101623.22;2094772;28;20036;-73
2022/11/20 03:14:39;;;;;;;23.30;3.75;;;;;;;18.98;100.00;101623.22;2103785;28;20446;-73
2022/11/20 03:16:07;;;;;;;20.30;3.33;;;;;;;18.98;100.00;101625.00;2094683;28;20102;-73
2022/11/20 03:17:29;;;;;;;18.17;3.60;;;;;;;18.95;100.00;101617.91;2095500;28;20617;-73
2022/11/20 03:18:53;;;;;;;20.05;3.63;;;;;;;18.96;100.00;101617.03;2083625;28;20059;-72
2022/11/20 03:20:15;;;;;;;19.20;3.50;;;;;;;18.98;100.00;101614.31;2107302;28;20051;-72
2022/11/20 03:21:37;;;;;;;21.55;3.38;;;;;;;18.98;100.00;101625.91;2105417;28;20047;-72
2022/11/20 03:22:59;;;;;;;20.52;3.33;;;;;;;18.97;100.00;101625.94;2106318;28;20058;-73
2022/11/20 03:24:21;;;;;;;35.78;4.65;;;;;;;18.93;100.00;101613.44;2099759;28;20048;-72
2022/11/20 03:25:44;;;;;;;20.88;3.13;;;;;;;18.91;100.00;101612.56;2103242;28;20056;-72
2022/11/20 03:27:07;;;;;;;20.23;4.28;;;;;;;18.89;100.00;101612.59;2097429;28;20041;-72
2022/11/20 03:28:28;;;;;;;31.33;4.70;;;;;;;18.86;100.00;101615.28;2086436;28;20106;-73
2022/11/20 03:29:50;;;;;;;22.02;3.35;;;;;;;18.85;100.00;101613.47;2101248;28;20039;-72
2022/11/20 03:31:15;;;;;;;29.10;4.80;;;;;;;18.83;100.00;101609.94;2097485;28;20181;-72
2022/11/20 03:32:36;;;;;;;17.30;4.25;;;;;;;18.79;100.00;101612.63;2088700;28;20102;-72
2022/11/20 03:34:00;;;;;;;23.95;4.68;;;;;;;18.78;100.00;101613.50;2100236;28;20101;-72
2022/11/20 03:35:21;;;;;;;18.77;3.65;;;;;;;18.78;100.00;101609.06;2088807;28;20483;-73
2022/11/20 03:36:44;;;;;;;29.58;4.45;;;;;;;18.81;100.00;101611.72;2086274;28;20064;-72
2022/11/20 03:38:05;;;;;;;23.60;4.28;;;;;;;18.82;100.00;101600.13;2092241;28;20089;-73
2022/11/20 03:39:28;;;;;;;22.13;4.53;;;;;;;18.85;100.00;101593.84;2094360;28;20060;-73
2022/11/20 03:40:51;;;;;;;17.45;3.30;;;;;;;18.88;100.00;101602.78;2102771;28;20052;-73
2022/11/20 03:43:50;;;;;;;18.98;3.85;;;;;;;18.88;100.00;101597.44;2095491;28;20072;-73
2022/11/20 03:45:12;;;;;;;19.00;3.47;;;;;;;18.90;100.00;101595.66;2094763;28;20126;-73
2022/11/20 03:46:34;;;;;;;;;;;;;;;18.91;100.00;101610.78;2110752;28;20130;-73
2022/11/20 03:47:56;;;;;;;27.13;4.15;;;;;;;18.93;100.00;101602.75;2105600;28;19924;-73
2022/11/20 03:49:19;;;;;;;18.95;3.63;;;;;;;18.92;100.00;101617.03;2105340;28;20032;-72
2022/11/20 03:50:40;;;;;;;24.70;3.60;;;;;;;18.90;100.00;101618.84;2086178;28;20630;-73
2022/11/20 03:52:02;;;;;;;24.23;4.70;;;;;;;18.83;100.00;101617.97;2100272;28;20047;-73
2022/11/20 03:53:24;;;;;;;28.25;3.30;;;;;;;18.78;100.00;101618.88;2094100;28;20815;-73
2022/11/20 03:54:46;;;;;;;19.83;3.58;;;;;;;18.71;100.00;101620.66;2108514;28;20043;-73
2022/11/20 03:56:12;;;;;;;24.08;4.32;;;;;;;18.65;100.00;101616.25;2104345;28;20089;-73
2022/11/20 03:57:33;;;;;;;25.60;4.78;;;;;;;18.62;100.00;101616.28;2111614;28;20127;-73
2022/11/20 03:58:56;;;;;;;29.55;3.95;;;;;;;18.62;100.00;101608.25;2110376;28;20051;-72
2022/11/20 04:00:19;;;;;;;22.35;3.90;;;;;;;18.62;100.00;101616.28;2113827;28;20482;-73
2022/11/20 04:01:41;;;;;;;26.52;3.75;;;;;;;18.61;100.00;101616.28;2111133;28;20495;-73
2022/11/20 04:03:03;;;;;;;23.65;4.50;;;;;;;18.60;100.00;101622.50;2111134;28;20080;-73
2022/11/20 04:04:26;;;;;;;23.73;4.35;;;;;;;18.60;100.00;101618.06;2102589;28;20048;-73
2022/11/20 04:05:47;;;;;;;26.50;3.88;;;;;;;18.61;100.00;101608.25;2094255;28;20669;-72
2022/11/20 04:07:09;;;;;;;19.40;4.13;;;;;;;18.61;100.00;101617.16;2099762;28;20079;-73
2022/11/20 04:08:32;;;;;;;23.92;4.35;;;;;;;18.64;100.00;101621.63;2111019;28;20496;-73
2022/11/20 04:09:54;;;;;;;31.70;3.80;;;;;;;18.64;100.00;101611.78;2104955;28;20087;-73
2022/11/20 04:11:21;;;;;;;30.85;5.05;;;;;;;18.66;100.00;101603.75;2111133;28;20095;-73
2022/11/20 04:12:43;;;;;;;26.95;4.15;;;;;;;18.65;100.00;101613.56;2088475;28;20162;-73
2022/11/20 04:14:05;;;;;;;24.20;5.35;;;;;;;18.61;100.00;101610.91;2091145;28;20097;-73
2022/11/20 04:15:28;;;;;;;27.40;4.65;;;;;;;18.59;100.00;101610.03;2102754;28;20504;-73
2022/11/20 04:16:50;;;;;;;19.13;4.60;;;;;;;18.60;100.00;101611.81;2088603;28;20041;-73
2022/11/20 04:18:12;;;;;;;25.35;4.30;;;;;;;18.60;100.00;101606.47;2094026;28;20143;-73
2022/11/20 04:19:33;;;;;;;26.02;3.92;;;;;;;18.56;100.00;101604.72;2085761;28;20106;-73
2022/11/20 04:20:58;;;;;;;21.35;3.67;;;;;;;18.51;100.00;101607.34;2099666;28;20040;-73
2022/11/20 04:22:20;;;;;;;22.17;3.72;;;;;;;18.49;100.00;101616.28;2105129;28;20040;-73
2022/11/20 04:23:41;;;;;;;25.13;4.43;;;;;;;18.48;100.00;101612.72;2096494;28;20091;-72
2022/11/20 04:25:04;;;;;;;24.95;4.20;;;;;;;18.50;100.00;101616.28;2101777;28;20071;-72
2022/11/20 04:26:28;;;;;;;25.67;3.65;;;;;;;18.50;100.00;101610.94;2105197;28;20069;-73
2022/11/20 04:27:50;;;;;;;20.27;3.67;;;;;;;18.41;100.00;101610.06;2096767;28;20040;-73
2022/11/20 04:29:12;;;;;;;20.23;4.10;;;;;;;18.26;100.00;101603.84;2102336;28;20477;-73
2022/11/20 04:30:34;;;;;;;24.27;3.85;;;;;;;18.15;100.00;101604.78;2096687;28;20057;-72
2022/11/20 04:31:57;;;;;;;32.13;4.70;;;;;;;18.06;100.00;101599.44;2099661;28;20048;-73
2022/11/20 04:33:18;;;;;;;29.92;3.83;;;;;;;18.06;100.00;101603.00;2094016;28;20036;-72
2022/11/20 04:34:40;;;;;;;26.05;4.25;;;;;;;18.08;100.00;101595.00;2092653;28;20514;-72
2022/11/20 04:36:04;;;;;;;25.73;3.90;;;;;;;18.12;100.00;101586.06;2099824;28;20077;-72
2022/11/20 04:37:26;;;;;;;28.02;4.10;;;;;;;18.18;100.00;101580.72;2102728;28;20499;-73
2022/11/20 04:38:50;;;;;;;28.77;4.20;;;;;;;18.28;100.00;101570.00;2102178;28;20116;-72
2022/11/20 04:40:13;;;;;;;16.55;2.70;;;;;;;18.38;100.00;101578.00;2108725;28;20169;-72
2022/11/20 04:41:36;;;;;;;21.35;3.45;;;;;;;18.46;100.00;101578.84;2096089;28;20041;-73
2022/11/20 04:42:59;;;;;;;18.67;2.88;;;;;;;18.56;100.00;101581.53;2099550;28;20063;-73
2022/11/20 04:44:21;;;;;;;27.73;4.28;;;;;;;18.70;100.00;101579.69;2109984;28;20035;-72
2022/11/20 04:45:43;;;;;;;31.80;4.30;;;;;;;18.83;100.00;101580.50;2104280;28;20640;-73
2022/11/20 04:47:05;;;;;;;23.20;4.40;;;;;;;18.87;100.00;101573.34;2101721;28;20131;-73
2022/11/20 04:48:28;;;;;;;15.43;4.72;;;;;;;18.90;100.00;101568.88;2110061;28;20449;-73
2022/11/20 04:49:50;;;;;;;22.17;3.72;;;;;;;18.93;100.00;101566.19;2104074;28;20048;-74
2022/11/20 04:51:12;;;;;;;28.15;4.72;;;;;;;18.98;100.00;101576.84;2099446;28;20585;-73
2022/11/20 04:52:35;;;;;;;26.45;5.00;;;;;;;19.02;100.00;101568.81;2096456;28;20075;-73
2022/11/20 04:53:57;;;;;;;19.10;3.20;;;;;;;19.05;100.00;101568.78;2101984;28;20142;-73
2022/11/20 04:55:19;;;;;;;26.95;4.18;;;;;;;19.08;100.00;101563.41;2088335;28;20101;-74
2022/11/20 04:56:43;;;;;;;20.10;5.38;;;;;;;19.14;100.00;101562.47;2090943;28;20063;-73
2022/11/20 04:58:04;;;;;;;21.80;4.82;;;;;;;19.18;100.00;101563.34;2102379;28;20052;-73
2022/11/20 04:59:27;;;;;;;12.90;3.33;;;;;;;19.20;100.00;101566.91;2096648;28;20167;-72
2022/11/20 05:00:51;;;;;;;28.30;4.13;;;;;;;19.22;100.00;101557.06;2096662;28;20093;-73
2022/11/20 05:02:12;;;;;;;26.55;4.57;;;;;;;19.21;100.00;101548.16;2093748;28;20139;-73
2022/11/20 05:03:35;;;;;;;16.70;2.60;;;;;;;19.21;100.00;101560.66;2095990;28;20709;-74
2022/11/20 05:04:57;;;;;;;26.10;4.97;;;;;;;19.22;100.00;101549.03;2102195;28;20523;-74
2022/11/20 05:06:20;;;;;;;32.00;3.63;;;;;;;19.26;100.00;101553.47;2096492;28;20048;-73
2022/11/20 05:07:43;;;;;;;22.88;3.75;;;;;;;19.27;100.00;101555.25;2102669;28;20048;-74
2022/11/20 05:09:04;;;;;;;31.50;4.53;;;;;;;19.31;100.00;101560.56;2087764;28;20041;-73
2022/11/20 05:10:27;;;;;;;14.90;3.03;;;;;;;19.34;100.00;101551.63;2090515;28;20459;-74
2022/11/20 05:11:50;;;;;;;23.15;4.07;;;;;;;19.38;100.00;101564.97;2093976;28;20044;-72
2022/11/20 05:13:13;;;;;;;31.67;5.07;;;;;;;19.40;100.00;101567.66;2102164;28;20130;-73
2022/11/20 05:14:36;;;;;;;24.92;4.00;;;;;;;19.38;100.00;101564.97;2096235;28;20125;-73
2022/11/20 05:16:01;;;;;;;20.88;2.85;;;;;;;19.37;100.00;101570.31;2093661;28;20041;-73
2022/11/20 05:17:23;;;;;;;26.92;4.25;;;;;;;19.35;100.00;101566.78;2085825;28;20052;-73
2022/11/20 05:18:46;;;;;;;26.23;4.18;;;;;;;19.34;100.00;101565.00;2090963;28;20142;-74
2022/11/20 05:20:08;;;;;;;;;;;;;;;19.29;100.00;101556.13;2094364;28;20703;-73
2022/11/20 05:21:31;;;;;;;27.13;5.72;;;;;;;19.30;100.00;101558.78;2102105;28;19921;-73
2022/11/20 05:22:53;;;;;;;23.90;3.55;;;;;;;19.32;100.00;101553.41;2096381;28;20078;-73
2022/11/20 05:24:15;;;;;;;27.67;4.45;;;;;;;19.35;100.00;101550.72;2102940;28;20059;-73
2022/11/20 05:25:37;;;;;;;23.75;3.63;;;;;;;19.40;100.00;101554.25;2096426;28;20041;-73
2022/11/20 05:27:01;;;;;;;26.77;4.22;;;;;;;19.48;100.00;101555.13;2102088;28;20040;-73
2022/11/20 05:28:23;;;;;;;27.55;3.92;;;;;;;19.53;100.00;101557.75;2102195;28;20040;-74
2022/11/20 05:29:45;;;;;;;24.15;3.50;;;;;;;19.55;100.00;101558.63;2110217;28;20719;-73
2022/11/20 05:31:07;;;;;;;27.85;4.35;;;;;;;19.60;100.00;101568.41;2110553;28;20031;-74
2022/11/20 05:32:29;;;;;;;23.95;3.90;;;;;;;19.63;100.00;101559.44;2085421;28;20049;-74
2022/11/20 05:33:51;;;;;;;21.55;3.83;;;;;;;19.66;100.00;101560.31;2090899;28;20102;-74
2022/11/20 05:35:14;;;;;;;24.17;3.97;;;;;;;19.69;100.00;101562.94;2096665;28;20044;-73
2022/11/20 05:36:35;;;;;;;27.63;4.95;;;;;;;19.71;100.00;101569.19;2093795;28;20040;-74
2022/11/20 05:37:58;;;;;;;25.63;3.78;;;;;;;19.71;100.00;101555.78;2093622;28;20051;-73
2022/11/20 05:39:20;;;;;;;26.00;4.50;;;;;;;19.73;100.00;101545.06;2101597;28;20040;-74
2022/11/20 05:40:42;;;;;;;17.90;3.72;;;;;;;19.77;100.00;101561.09;2104727;28;20072;-73
2022/11/20 05:43:46;;;;;;;30.95;5.10;;;;;;;19.83;100.00;101549.44;2106536;28;20467;-73
2022/11/20 05:45:10;;;;;;;25.27;4.53;;;;;;;19.86;100.00;101554.78;2106186;28;20437;-73
2022/11/20 05:46:34;;;;;;;43.78;5.90;;;;;;;19.90;100.00;101564.53;2102058;28;20036;-74
2022/11/20 05:47:59;;;;;;;31.38;5.78;;;;;;;19.95;100.00;101573.44;2102325;28;20568;-74
2022/11/20 05:49:22;;;;;;;31.25;5.70;;;;;;;20.00;100.00;101581.44;2104695;28;20051;-73
2022/11/20 05:50:44;;;;;;;25.83;4.72;;;;;;;20.05;100.00;101574.22;2096136;28;20078;-74
2022/11/20 05:52:06;;;;;;;25.02;4.35;;;;;;;20.11;100.00;101571.47;2093449;28;20079;-74
2022/11/20 05:53:29;;;;;;;29.85;5.10;;;;;;;20.19;100.00;101569.63;2102131;28;20048;-73
2022/11/20 05:54:51;;;;;;;25.88;5.15;;;;;;;20.26;100.00;101565.97;2087886;28;20051;-73
2022/11/20 05:56:16;;;;;;;26.55;5.78;;;;;;;20.34;100.00;101584.69;2093873;28;20641;-74
2022/11/20 05:57:40;;;;;;;27.90;4.80;;;;;;;20.40;100.00;101571.19;2102462;28;20037;-74
2022/11/20 05:59:02;;;;;;;29.92;6.00;;;;;;;20.46;100.00;101566.66;2104329;28;20633;-74
2022/11/20 06:00:24;;;;;;;35.30;6.15;;;;;;;20.55;100.00;101589.78;2097045;28;20044;-73
2022/11/20 06:01:46;;;;;;;35.85;5.65;;;;;;;20.62;100.00;101581.63;2104891;28;20047;-73
2022/11/20 06:03:07;;;;;;;31.42;4.63;;;;;;;20.66;100.00;101588.75;2098696;28;20056;-73
2022/11/20 06:04:30;;;;;;;20.55;4.10;;;;;;;20.67;100.00;101582.50;2110230;28;20082;-73
2022/11/20 06:05:52;;;;;;;26.15;3.40;;;;;;;20.67;100.00;101587.88;2097141;28;20040;-74
2022/11/20 06:07:14;;;;;;;32.17;4.30;;;;;;;20.68;100.00;101592.28;2086824;28;20102;-73
2022/11/20 06:08:36;;;;;;;30.90;5.60;;;;;;;20.69;100.00;101598.56;2093637;28;20064;-73
2022/11/20 06:09:58;;;;;;;31.50;4.97;;;;;;;20.69;100.00;101601.22;2104716;28;20131;-74
2022/11/20 06:11:21;;;;;;;35.08;5.63;;;;;;;20.72;100.00;101598.53;2087789;28;20053;-74
2022/11/20 06:12:44;;;;;;;28.42;3.92;;;;;;;20.76;100.00;101594.00;2101256;28;20032;-74
2022/11/20 06:14:06;;;;;;;28.02;5.18;;;;;;;20.81;100.00;101593.03;2087692;28;20048;-74
2022/11/20 06:15:29;;;;;;;23.55;4.07;;;;;;;20.87;100.00;101589.41;2096475;28;20052;-73
2022/11/20 06:16:52;;;;;;;29.02;5.60;;;;;;;20.90;100.00;101587.53;2093843;28;20385;-74
2022/11/20 06:18:13;;;;;;;26.77;5.22;;;;;;;20.96;100.00;101586.56;2093229;28;20114;-73
2022/11/20 06:19:35;;;;;;;37.05;4.95;;;;;;;20.98;100.00;101591.00;2093181;28;20709;-73
2022/11/20 06:21:02;;;;;;;23.98;4.82;;;;;;;21.02;100.00;101597.22;2093339;28;20495;-74
2022/11/20 06:22:24;;;;;;;23.23;5.30;;;;;;;21.01;100.00;101600.81;2107971;28;20046;-73
2022/11/20 06:23:46;;;;;;;22.83;4.18;;;;;;;21.01;100.00;101599.00;2105705;28;20060;-73
2022/11/20 06:25:09;;;;;;;32.63;4.85;;;;;;;21.01;100.00;101590.94;2094879;28;20044;-72